createdAt,value
2023-04-03T00:01:21.144Z,48.30
2023-04-03T00:03:49.436Z,48.30
2023-04-03T00:06:17.702Z,48.00
2023-04-03T00:08:47.034Z,47.30
2023-04-03T00:11:16.153Z,47.40
2023-04-03T00:13:44.852Z,47.50
2023-04-03T00:16:14.484Z,48.30
2023-04-03T00:18:43.154Z,48.20
2023-04-03T00:21:12.467Z,48.30
2023-04-03T00:23:43.162Z,47.80
2023-04-03T00:26:11.416Z,47.30
2023-04-03T00:28:41.879Z,47.30
2023-04-03T00:31:10.439Z,47.40
2023-04-03T00:33:40.230Z,48.60
2023-04-03T00:36:09.990Z,49.20
2023-04-03T00:38:38.883Z,50.00
2023-04-03T00:41:08.129Z,49.30
2023-04-03T00:43:36.305Z,48.90
2023-04-03T00:46:04.675Z,48.70
2023-04-03T00:48:36.088Z,49.30
2023-04-03T00:51:07.867Z,49.00
2023-04-03T00:53:40.529Z,48.80
2023-04-03T00:56:12.633Z,48.40
2023-04-03T00:58:46.488Z,48.70
2023-04-03T01:01:20.655Z,49.10
2023-04-03T01:03:48.917Z,50.40
2023-04-03T01:06:21.139Z,50.00
2023-04-03T01:08:52.197Z,50.10
2023-04-03T01:11:21.645Z,49.60
2023-04-03T01:13:51.113Z,49.40
2023-04-03T01:16:20.464Z,49.50
2023-04-03T01:18:49.077Z,49.80
2023-04-03T01:21:47.844Z,49.20
2023-04-03T01:24:33.696Z,48.80
2023-04-03T01:27:06.644Z,48.80
2023-04-03T01:29:35.737Z,48.60
2023-04-03T01:32:05.952Z,48.50
2023-04-03T01:34:34.557Z,49.20
2023-04-03T01:37:03.347Z,50.00
2023-04-03T01:39:31.601Z,50.70
2023-04-03T01:42:00.335Z,49.50
2023-04-03T01:44:33.170Z,48.70
2023-04-03T01:47:01.974Z,48.30
2023-04-03T01:49:32.544Z,48.20
2023-04-03T01:52:01.004Z,49.10
2023-04-03T01:54:29.227Z,48.90
2023-04-03T01:56:57.905Z,49.00
2023-04-03T01:59:26.197Z,48.40
2023-04-03T02:01:55.161Z,48.70
2023-04-03T02:04:24.228Z,48.60
2023-04-03T02:06:53.807Z,49.00
2023-04-03T02:09:22.045Z,49.60
2023-04-03T02:11:50.818Z,48.70
2023-04-03T02:14:18.995Z,49.40
2023-04-03T02:16:47.408Z,49.10
2023-04-03T02:19:15.974Z,49.10
2023-04-03T02:21:44.363Z,48.80
2023-04-03T02:24:13.927Z,49.80
2023-04-03T02:26:42.130Z,49.10
2023-04-03T02:29:10.691Z,49.40
2023-04-03T02:31:38.931Z,48.60
2023-04-03T02:34:07.668Z,49.10
2023-04-03T02:36:37.531Z,48.60
2023-04-03T02:39:08.905Z,49.70
2023-04-03T02:41:38.888Z,50.50
2023-04-03T02:44:13.615Z,50.00
2023-04-03T02:46:42.089Z,49.40
2023-04-03T02:49:10.469Z,49.40
2023-04-03T02:51:39.044Z,49.50
2023-04-03T02:54:08.777Z,48.80
2023-04-03T02:56:41.468Z,48.90
2023-04-03T02:59:09.788Z,49.10
2023-04-03T03:01:40.420Z,48.50
2023-04-03T03:04:09.035Z,48.00
2023-04-03T03:06:37.338Z,47.90
2023-04-03T03:09:06.657Z,47.40
2023-04-03T03:11:34.993Z,47.80
2023-04-03T03:14:05.988Z,47.60
2023-04-03T03:16:35.505Z,47.60
2023-04-03T03:19:03.915Z,47.30
2023-04-03T03:21:33.316Z,46.70
2023-04-03T03:24:01.522Z,46.40
2023-04-03T03:26:30.299Z,45.90
2023-04-03T03:28:58.508Z,45.80
2023-04-03T03:31:28.230Z,46.30
2023-04-03T03:33:56.423Z,46.70
2023-04-03T03:36:24.664Z,47.30
2023-04-03T03:38:52.943Z,47.50
2023-04-03T03:41:21.628Z,48.20
2023-04-03T03:43:49.828Z,49.10
2023-04-03T03:46:18.898Z,48.30
2023-04-03T03:48:48.611Z,48.40
2023-04-03T03:51:17.905Z,48.50
2023-04-03T03:53:46.599Z,48.50
2023-04-03T03:56:17.788Z,48.40
2023-04-03T03:58:47.271Z,49.30
2023-04-03T04:01:16.182Z,49.20
2023-04-03T04:03:49.813Z,49.30
2023-04-03T04:06:22.396Z,48.60
2023-04-03T04:08:51.461Z,48.70
2023-04-03T04:11:20.016Z,48.70
2023-04-03T04:13:48.921Z,49.20
2023-04-03T04:16:19.280Z,48.40
2023-04-03T04:18:48.916Z,48.40
2023-04-03T04:21:18.731Z,48.60
2023-04-03T04:23:48.109Z,48.10
2023-04-03T04:26:16.939Z,48.50
2023-04-03T04:28:45.348Z,49.70
2023-04-03T04:31:13.658Z,49.50
2023-04-03T04:33:42.928Z,48.90
2023-04-03T04:36:16.558Z,48.80
2023-04-03T04:38:47.081Z,47.90
2023-04-03T04:41:16.985Z,47.80
2023-04-03T04:43:45.264Z,49.20
2023-04-03T04:46:13.690Z,48.90
2023-04-03T04:48:47.359Z,49.10
2023-04-03T04:51:18.169Z,49.50
2023-04-03T04:53:46.430Z,50.00
2023-04-03T04:56:17.155Z,49.50
2023-04-03T04:58:45.798Z,48.90
2023-04-03T05:01:14.270Z,48.70
2023-04-03T05:03:53.606Z,48.20
2023-04-03T05:06:23.570Z,48.30
2023-04-03T05:08:51.768Z,49.10
2023-04-03T05:11:21.276Z,49.80
2023-04-03T05:13:53.681Z,50.10
2023-04-03T05:16:23.934Z,49.70
2023-04-03T05:18:52.541Z,48.10
2023-04-03T05:21:27.117Z,47.40
2023-04-03T05:23:55.404Z,47.40
2023-04-03T05:26:23.685Z,48.00
2023-04-03T05:28:52.894Z,47.40
2023-04-03T05:31:22.226Z,47.10
2023-04-03T05:33:51.000Z,47.40
2023-04-03T05:36:21.628Z,48.40
2023-04-03T05:38:57.236Z,48.20
2023-04-03T05:41:26.647Z,48.20
2023-04-03T05:43:55.078Z,47.60
2023-04-03T05:46:25.460Z,48.00
2023-04-03T05:48:57.257Z,47.90
2023-04-03T05:51:35.984Z,48.90
2023-04-03T05:54:28.352Z,50.30
2023-04-03T05:57:17.016Z,50.60
2023-04-03T05:59:45.609Z,49.90
2023-04-03T06:02:15.892Z,49.00
2023-04-03T06:04:44.345Z,48.80
2023-04-03T06:07:15.060Z,48.10
2023-04-03T06:09:45.110Z,47.40
2023-04-03T06:12:14.207Z,47.70
2023-04-03T06:14:45.770Z,46.90
2023-04-03T06:17:16.776Z,46.40
2023-04-03T06:19:45.380Z,46.10
2023-04-03T06:22:13.885Z,46.10
2023-04-03T06:24:44.729Z,45.90
2023-04-03T06:27:13.491Z,47.30
2023-04-03T06:29:44.192Z,46.20
2023-04-03T06:32:12.388Z,45.90
2023-04-03T06:34:40.689Z,46.30
2023-04-03T06:37:08.872Z,45.80
2023-04-03T06:39:37.087Z,45.00
2023-04-03T06:42:06.763Z,45.90
2023-04-03T06:44:47.877Z,44.60
2023-04-03T06:47:16.982Z,44.70
2023-04-03T06:49:46.067Z,45.40
2023-04-03T06:52:14.320Z,46.60
2023-04-03T06:54:43.088Z,46.60
2023-04-03T06:57:12.653Z,48.00
2023-04-03T06:59:41.189Z,48.20
2023-04-03T07:02:11.169Z,47.10
2023-04-03T07:04:40.374Z,45.20
2023-04-03T07:07:08.713Z,44.30
2023-04-03T07:09:37.094Z,44.60
2023-04-03T07:12:05.533Z,44.50
2023-04-03T07:14:35.490Z,46.40
2023-04-03T07:17:03.749Z,46.20
2023-04-03T07:19:32.274Z,43.60
2023-04-03T07:22:03.056Z,42.50
2023-04-03T07:24:31.226Z,41.40
2023-04-03T07:26:59.650Z,41.60
2023-04-03T07:29:28.388Z,40.90
2023-04-03T07:31:58.502Z,41.80
2023-04-03T07:34:26.974Z,42.60
2023-04-03T07:36:55.796Z,40.90
2023-04-03T07:39:24.019Z,42.30
2023-04-03T07:41:52.261Z,41.40
2023-04-03T07:44:21.848Z,41.40
2023-04-03T07:46:51.486Z,41.30
2023-04-03T07:49:21.023Z,42.50
2023-04-03T07:51:49.545Z,42.80
2023-04-03T07:54:17.754Z,43.20
2023-04-03T07:56:46.046Z,45.00
2023-04-03T07:59:14.265Z,44.30
2023-04-03T08:01:42.461Z,45.20
2023-04-03T08:04:11.166Z,45.20
2023-04-03T08:06:46.937Z,44.40
2023-04-03T08:09:16.496Z,44.20
2023-04-03T08:11:45.498Z,42.00
2023-04-03T08:14:17.665Z,43.10
2023-04-03T08:16:50.064Z,43.40
2023-04-03T08:19:26.304Z,42.20
2023-04-03T08:21:57.743Z,41.10
2023-04-03T08:24:26.272Z,42.00
2023-04-03T08:26:54.515Z,41.70
2023-04-03T08:29:23.132Z,42.30
2023-04-03T08:31:51.849Z,42.80
2023-04-03T08:34:20.618Z,40.80
2023-04-03T08:36:49.182Z,41.30
2023-04-03T08:39:18.831Z,42.00
2023-04-03T08:41:48.853Z,42.20
2023-04-03T08:44:24.376Z,41.60
2023-04-03T08:47:10.069Z,42.70
2023-04-03T08:49:47.923Z,41.60
2023-04-03T08:52:18.577Z,42.90
2023-04-03T08:54:53.475Z,42.10
2023-04-03T08:57:31.053Z,43.70
2023-04-03T09:00:01.828Z,40.90
2023-04-03T09:02:35.104Z,40.30
2023-04-03T09:05:04.777Z,42.50
2023-04-03T09:07:39.106Z,41.60
2023-04-03T09:10:11.333Z,42.00
2023-04-03T09:12:44.674Z,41.70
2023-04-03T09:15:27.904Z,40.30
2023-04-03T09:18:08.890Z,39.80
2023-04-03T09:20:45.944Z,40.40
2023-04-03T09:23:21.498Z,40.40
2023-04-03T09:25:55.285Z,41.00
2023-04-03T09:28:23.542Z,40.90
2023-04-03T09:30:51.731Z,41.40
2023-04-03T09:33:20.676Z,42.00
2023-04-03T09:35:50.716Z,41.10
2023-04-03T09:38:25.023Z,41.10
2023-04-03T09:41:08.551Z,41.60
2023-04-03T09:43:39.645Z,40.00
2023-04-03T09:46:30.172Z,41.30
2023-04-03T09:49:08.192Z,41.60
2023-04-03T09:51:37.898Z,41.30
2023-04-03T09:54:39.521Z,41.20
2023-04-03T09:57:14.134Z,41.70
2023-04-03T09:59:47.252Z,42.40
2023-04-03T10:02:31.083Z,41.60
2023-04-03T10:07:38.028Z,40.80
2023-04-03T10:10:21.612Z,39.50
2023-04-03T10:12:51.601Z,40.20
2023-04-03T10:15:21.132Z,39.30
2023-04-03T10:18:00.392Z,38.10
2023-04-03T10:20:38.269Z,39.20
2023-04-03T10:23:21.017Z,39.60
2023-04-03T10:26:02.040Z,41.30
2023-04-03T10:28:39.253Z,40.70
2023-04-03T10:31:16.539Z,39.50
2023-04-03T10:33:55.491Z,40.50
2023-04-03T10:36:35.801Z,40.60
2023-04-03T10:39:14.385Z,40.10
2023-04-03T10:42:00.712Z,40.30
2023-04-03T10:44:51.177Z,40.80
2023-04-03T10:47:23.976Z,41.50
2023-04-03T10:50:02.190Z,41.40
2023-04-03T10:52:38.802Z,41.20
2023-04-03T10:55:25.096Z,39.70
2023-04-03T10:57:55.053Z,39.40
2023-04-03T11:00:38.233Z,38.90
2023-04-03T11:03:11.100Z,39.30
2023-04-03T11:05:44.850Z,39.40
2023-04-03T11:08:20.454Z,38.30
2023-04-03T11:10:52.723Z,37.60
2023-04-03T11:13:26.208Z,37.10
2023-04-03T11:15:56.511Z,38.40
2023-04-03T11:18:29.273Z,40.00
2023-04-03T11:21:05.017Z,40.70
2023-04-03T11:23:48.258Z,42.00
2023-04-03T11:26:21.908Z,41.80
2023-04-03T11:28:55.951Z,40.70
2023-04-03T11:31:46.608Z,40.40
2023-04-03T11:34:30.726Z,40.00
2023-04-03T11:37:01.514Z,41.50
2023-04-03T11:39:34.682Z,41.10
2023-04-03T11:42:18.805Z,40.10
2023-04-03T11:44:47.356Z,39.30
2023-04-03T11:47:47.227Z,39.20
2023-04-03T11:50:32.877Z,39.60
2023-04-03T11:53:26.113Z,37.80
2023-04-03T11:55:59.784Z,38.90
2023-04-03T11:58:30.310Z,38.40
2023-04-03T12:01:10.584Z,36.00
2023-04-03T12:04:08.101Z,36.20
2023-04-03T12:07:05.292Z,36.70
2023-04-03T12:09:59.190Z,37.40
2023-04-03T12:12:32.588Z,37.20
2023-04-03T12:15:23.169Z,37.20
2023-04-03T12:17:52.754Z,36.80
2023-04-03T12:20:57.609Z,36.60
2023-04-03T12:23:29.670Z,37.20
2023-04-03T12:26:05.658Z,38.10
2023-04-03T12:28:43.895Z,38.50
2023-04-03T12:31:13.700Z,39.00
2023-04-03T12:34:06.740Z,38.00
2023-04-03T12:36:46.502Z,37.50
2023-04-03T12:39:38.599Z,38.50
2023-04-03T12:42:33.184Z,38.50
2023-04-03T12:45:18.369Z,38.10
2023-04-03T12:47:52.790Z,37.00
2023-04-03T12:50:25.921Z,36.00
2023-04-03T12:52:59.876Z,36.00
2023-04-03T12:55:28.493Z,35.90
2023-04-03T12:57:56.646Z,35.40
2023-04-03T13:00:33.566Z,34.30
2023-04-03T13:03:03.365Z,35.90
2023-04-03T13:05:35.923Z,36.40
2023-04-03T13:08:11.697Z,35.80
2023-04-03T13:10:54.470Z,35.90
2023-04-03T13:13:23.961Z,35.70
2023-04-03T13:15:53.690Z,35.80
2023-04-03T13:18:28.037Z,37.00
2023-04-03T13:21:03.503Z,36.60
2023-04-03T13:23:35.534Z,35.80
2023-04-03T13:26:04.541Z,35.50
2023-04-03T13:28:35.259Z,35.90
2023-04-03T13:31:12.656Z,36.60
2023-04-03T13:33:54.151Z,36.20
2023-04-03T13:36:29.559Z,36.20
2023-04-03T13:39:06.285Z,37.10
2023-04-03T13:41:36.398Z,36.10
2023-04-03T13:44:30.630Z,36.90
2023-04-03T13:47:00.385Z,36.20
2023-04-03T13:49:34.908Z,36.30
2023-04-03T13:52:07.606Z,35.70
2023-04-03T13:54:40.594Z,36.20
2023-04-03T13:57:16.709Z,37.20
2023-04-03T13:59:45.834Z,36.70
2023-04-03T14:02:22.653Z,36.30
2023-04-03T14:04:57.269Z,35.60
2023-04-03T14:07:25.958Z,35.50
2023-04-03T14:09:56.419Z,34.80
2023-04-03T14:12:31.930Z,33.50
2023-04-03T14:15:04.968Z,33.50
2023-04-03T14:17:33.654Z,34.80
2023-04-03T14:20:02.583Z,35.20
2023-04-03T14:22:34.526Z,35.50
2023-04-03T14:25:04.362Z,35.10
2023-04-03T14:27:38.784Z,34.40
2023-04-03T14:30:11.589Z,34.20
2023-04-03T14:32:39.867Z,34.00
2023-04-03T14:35:08.779Z,33.80
2023-04-03T14:37:37.008Z,32.80
2023-04-03T14:40:08.780Z,32.00
2023-04-03T14:42:38.935Z,34.10
2023-04-03T14:45:10.414Z,33.80
2023-04-03T14:47:43.829Z,32.70
2023-04-03T14:50:16.702Z,31.80
2023-04-03T14:52:46.329Z,31.70
2023-04-03T14:55:17.810Z,33.00
2023-04-03T14:57:46.343Z,32.30
2023-04-03T15:00:16.678Z,32.60
2023-04-03T15:02:45.255Z,32.00
2023-04-03T15:05:14.912Z,31.10
2023-04-03T15:07:44.957Z,31.60
2023-04-03T15:10:20.969Z,31.30
2023-04-03T15:12:50.248Z,30.90
2023-04-03T15:15:21.753Z,31.10
2023-04-03T15:17:54.872Z,31.00
2023-04-03T15:20:25.468Z,31.40
2023-04-03T15:22:53.804Z,30.70
2023-04-03T15:25:23.488Z,30.30
2023-04-03T15:27:51.822Z,31.20
2023-04-03T15:30:21.826Z,32.40
2023-04-03T15:32:50.445Z,32.30
2023-04-03T15:35:21.327Z,32.20
2023-04-03T15:37:49.897Z,32.40
2023-04-03T15:40:18.151Z,32.50
2023-04-03T15:42:47.792Z,31.40
2023-04-03T15:45:26.599Z,31.60
2023-04-03T15:47:54.898Z,31.70
2023-04-03T15:50:24.981Z,31.60
2023-04-03T15:52:56.207Z,32.00
2023-04-03T15:55:25.038Z,32.20
2023-04-03T15:57:55.387Z,33.20
2023-04-03T16:00:24.590Z,32.50
2023-04-03T16:02:55.183Z,31.80
2023-04-03T16:05:23.968Z,33.10
2023-04-03T16:07:52.581Z,32.40
2023-04-03T16:10:21.321Z,31.30
2023-04-03T16:12:49.545Z,31.80
2023-04-03T16:15:19.562Z,32.20
2023-04-03T16:17:48.989Z,31.10
2023-04-03T16:20:17.552Z,30.30
2023-04-03T16:22:45.854Z,31.20
2023-04-03T16:25:14.400Z,29.90
2023-04-03T16:27:42.632Z,30.80
2023-04-03T16:30:12.912Z,30.50
2023-04-03T16:32:42.869Z,32.80
2023-04-03T16:35:12.465Z,33.10
2023-04-03T16:37:41.451Z,32.30
2023-04-03T16:40:11.024Z,32.00
2023-04-03T16:42:39.512Z,31.60
2023-04-03T16:45:09.268Z,31.50
2023-04-03T16:47:37.551Z,31.90
2023-04-03T16:50:08.240Z,31.70
2023-04-03T16:52:36.542Z,31.90
2023-04-03T16:55:09.117Z,31.90
2023-04-03T16:57:37.288Z,32.40
2023-04-03T17:00:06.837Z,32.10
2023-04-03T17:02:35.413Z,33.30
2023-04-03T17:05:03.615Z,33.00
2023-04-03T17:07:33.208Z,33.40
2023-04-03T17:10:02.584Z,32.40
2023-04-03T17:12:30.842Z,31.60
2023-04-03T17:15:01.103Z,32.30
2023-04-03T17:17:29.417Z,32.60
2023-04-03T17:19:58.029Z,31.70
2023-04-03T17:22:26.329Z,32.00
2023-04-03T17:24:55.894Z,31.70
2023-04-03T17:27:24.455Z,32.10
2023-04-03T17:29:52.772Z,31.80
2023-04-03T17:32:21.087Z,32.20
2023-04-03T17:34:49.482Z,32.70
2023-04-03T17:37:17.714Z,32.80
2023-04-03T17:39:46.959Z,32.20
2023-04-03T17:42:18.111Z,31.80
2023-04-03T17:44:46.436Z,31.10
2023-04-03T17:47:14.680Z,31.40
2023-04-03T17:49:43.030Z,31.60
2023-04-03T17:52:11.199Z,31.60
2023-04-03T17:54:39.406Z,31.80
2023-04-03T17:57:08.850Z,31.80
2023-04-03T17:59:38.972Z,31.40
2023-04-03T18:02:08.398Z,31.50
2023-04-03T18:04:36.610Z,30.90
2023-04-03T18:07:09.438Z,32.50
2023-04-03T18:09:41.274Z,32.50
2023-04-03T18:12:11.017Z,33.40
2023-04-03T18:14:43.461Z,33.70
2023-04-03T18:17:11.655Z,33.30
2023-04-03T18:19:39.879Z,32.80
2023-04-03T18:22:15.665Z,33.70
2023-04-03T18:24:44.997Z,32.90
2023-04-03T18:27:18.414Z,32.80
2023-04-03T18:29:50.377Z,32.90
2023-04-03T18:32:20.781Z,32.70
2023-04-03T18:34:49.037Z,32.60
2023-04-03T18:37:17.341Z,32.20
2023-04-03T18:39:45.501Z,32.60
2023-04-03T18:42:16.311Z,31.90
2023-04-03T18:44:51.978Z,31.60
2023-04-03T18:47:20.472Z,32.90
2023-04-03T18:49:48.688Z,31.70
2023-04-03T18:52:16.864Z,31.50
2023-04-03T18:54:45.079Z,31.20
2023-04-03T18:57:13.252Z,31.20
2023-04-03T18:59:41.450Z,31.70
2023-04-03T19:02:12.388Z,32.40
2023-04-03T19:04:40.694Z,32.40
2023-04-03T19:07:10.265Z,31.80
2023-04-03T19:09:39.710Z,32.00
2023-04-03T19:12:08.811Z,31.90
2023-04-03T19:14:37.065Z,32.40
2023-04-03T19:17:07.362Z,33.50
2023-04-03T19:19:38.057Z,33.30
2023-04-03T19:22:07.645Z,33.90
2023-04-03T19:24:35.975Z,33.90
2023-04-03T19:27:04.271Z,32.90
2023-04-03T19:29:32.464Z,33.10
2023-04-03T19:32:00.858Z,33.80
2023-04-03T19:34:29.133Z,33.50
2023-04-03T19:36:58.769Z,33.70
2023-04-03T19:39:29.030Z,33.50
2023-04-03T19:41:58.388Z,33.40
2023-04-03T19:44:27.386Z,33.60
2023-04-03T19:46:56.251Z,34.00
2023-04-03T19:49:24.575Z,34.70
2023-04-03T19:51:53.332Z,33.10
2023-04-03T19:54:23.620Z,33.80
2023-04-03T19:56:51.832Z,34.30
2023-04-03T19:59:19.981Z,34.10
2023-04-03T20:01:48.237Z,33.40
2023-04-03T20:04:16.677Z,33.70
2023-04-03T20:06:47.258Z,33.60
2023-04-03T20:09:16.035Z,33.90
2023-04-03T20:11:47.591Z,34.00
2023-04-03T20:14:16.503Z,34.50
2023-04-03T20:16:47.630Z,35.30
2023-04-03T20:19:16.728Z,35.70
2023-04-03T20:21:45.094Z,36.40
2023-04-03T20:24:15.032Z,35.20
2023-04-03T20:26:47.140Z,35.10
2023-04-03T20:29:16.686Z,34.60
2023-04-03T20:31:47.726Z,35.00
2023-04-03T20:34:15.992Z,36.10
2023-04-03T20:36:48.058Z,36.40
2023-04-03T20:39:19.016Z,36.30
2023-04-03T20:41:49.637Z,35.50
2023-04-03T20:44:19.817Z,35.10
2023-04-03T20:46:53.369Z,35.60
2023-04-03T20:49:22.716Z,36.80
2023-04-03T20:51:51.601Z,36.50
2023-04-03T20:54:20.136Z,35.40
2023-04-03T20:56:50.372Z,35.30
2023-04-03T20:59:18.893Z,34.80
2023-04-03T21:01:48.908Z,34.80
2023-04-03T21:04:23.616Z,34.60
2023-04-03T21:07:29.071Z,34.30
2023-04-03T21:10:35.674Z,35.20
2023-04-03T21:13:41.338Z,35.30
2023-04-03T21:16:09.219Z,35.10
2023-04-03T21:18:49.729Z,34.40
2023-04-03T21:21:23.094Z,34.30
2023-04-03T21:23:52.603Z,34.30
2023-04-03T21:26:21.940Z,33.50
2023-04-03T21:28:52.171Z,34.10
2023-04-03T21:31:22.583Z,34.20
2023-04-03T21:33:52.487Z,34.30
2023-04-03T21:36:20.667Z,34.00
2023-04-03T21:38:49.969Z,34.30
2023-04-03T21:41:18.146Z,34.10
2023-04-03T21:43:48.012Z,34.10
2023-04-03T21:46:16.358Z,34.40
2023-04-03T21:48:46.977Z,34.10
2023-04-03T21:51:17.136Z,34.60
2023-04-03T21:53:46.561Z,34.90
2023-04-03T21:56:14.719Z,35.20
2023-04-03T21:58:42.998Z,34.80
2023-04-03T22:01:11.870Z,35.40
2023-04-03T22:03:41.300Z,34.70
2023-04-03T22:06:10.179Z,34.40
2023-04-03T22:08:39.824Z,34.00
2023-04-03T22:11:10.551Z,34.60
2023-04-03T22:13:38.739Z,34.60
2023-04-03T22:16:07.549Z,35.20
2023-04-03T22:18:36.430Z,35.00
2023-04-03T22:21:05.924Z,35.40
2023-04-03T22:23:34.132Z,35.00
2023-04-03T22:26:06.289Z,35.10
2023-04-03T22:28:36.552Z,34.80
2023-04-03T22:31:07.307Z,34.60
2023-04-03T22:33:36.435Z,34.40
2023-04-03T22:36:09.302Z,34.40
2023-04-03T22:38:37.948Z,34.40
2023-04-03T22:41:09.016Z,34.20
2023-04-03T22:43:38.468Z,34.00
2023-04-03T22:46:08.390Z,34.10
2023-04-03T22:48:36.831Z,34.70
2023-04-03T22:51:07.319Z,34.60
2023-04-03T22:53:35.940Z,34.40
2023-04-03T22:56:08.311Z,35.00
2023-04-03T22:58:39.362Z,35.50
2023-04-03T23:01:09.093Z,35.60
2023-04-03T23:03:38.926Z,35.00
2023-04-03T23:06:07.807Z,35.50
2023-04-03T23:08:38.032Z,36.00
2023-04-03T23:11:09.298Z,35.70
2023-04-03T23:13:39.406Z,36.00
2023-04-03T23:16:08.049Z,36.00
2023-04-03T23:18:39.621Z,35.70
2023-04-03T23:21:09.248Z,36.20
2023-04-03T23:23:37.527Z,36.50
2023-04-03T23:26:06.057Z,36.70
2023-04-03T23:28:34.265Z,36.20
2023-04-03T23:31:06.561Z,36.30
2023-04-03T23:33:35.431Z,36.20
2023-04-03T23:36:08.569Z,36.80
2023-04-03T23:38:37.446Z,37.10
2023-04-03T23:41:06.009Z,36.70
2023-04-03T23:43:34.199Z,36.80
2023-04-03T23:46:03.822Z,36.80
2023-04-03T23:48:32.061Z,37.00
2023-04-03T23:51:00.228Z,37.50
2023-04-03T23:53:28.598Z,37.60
2023-04-03T23:55:56.993Z,38.00
2023-04-03T23:58:25.200Z,38.60
